Chandler Field
KAXN : now visible

Airfield :











YOU CAN JOIN US ON...

 
LOGIN :

Register | Disclaimer

   EN    FR    IT 

 









Legend :    VFR   Marginal VFR   IFR   Intensive IFR   Very Intensive IFR
Visi :
Ceiling :
>= 8 km
>= 3000ft
5 to 8 km
1000 to 3000 ft
1500m to 5 km
500 to 1000 ft
800 to 1500m
200 to 500 ft
< 800m
< 200 ft
Symbols :   Thunderstorms  Fog  Heavy snow  Heavy precipitations  Wind > 20 kt







- Airport Elevation : 1425 ft


KAXN - Chandler Field

CURRENT METAR :
  • 181853Z AUTO 25011KT 10SM CLR 30/20 A2970 RMK AO2 SLP047 T03000200

EXPIRED METARs :
  • 181753Z AUTO 23011KT 10SM CLR 29/20 A2971 RMK AO2 SLP050 T02890200 10294 20222 58003
  • 181653Z AUTO 22008KT 10SM CLR 28/19 A2971 RMK AO2 SLP053 T02780194

TAF KAXN
Valid from the 18 at 18:00 until the 19 at 18:00 UTC


181726Z 1818/1918 23010KT P6SM SCT120 BKN250
FM190100 20005KT P6SM VCSH SCT050 SCT250
FM190600 VRB03KT P6SM FEW200
FM191400 14008KT P6SM FEW040 SCT150
KZMP FIR / North America



MET'MAP, your aeronautical weather chart ! - Copyright ORBIFLY December 2007 - Disclaimer

ORBIFLY MET'MAP TEAM :

Programming & Development : Alexandra Zaïnal
Concept & Development : Baudouin d'Aumeries
Co-Development & Prog : Marc-Olivier Méhu
Technical & hardware support : Manuel Goepfert

Contact : metmap@orbifly.com




SOURCES & CREDITS :

   NOAA       Earth
Advisory